createdAt,value
2018-01-18T10:27:06.651Z,0.00
2018-01-18T10:30:05.621Z,76.40
2018-01-18T10:31:05.515Z,77.29
2018-01-18T10:32:58.533Z,81.34
2018-01-18T10:33:58.480Z,82.82
2018-01-18T10:36:28.303Z,82.04
2018-01-18T10:59:28.022Z,69.06
2018-01-18T11:00:28.187Z,70.61
2018-01-18T11:02:20.905Z,76.37
2018-01-18T11:03:20.850Z,78.03
2018-01-18T11:05:13.870Z,79.65
2018-01-18T11:06:13.775Z,79.94
2018-01-18T11:08:06.810Z,80.79
2018-01-18T11:09:06.735Z,80.13
2018-01-18T11:11:15.063Z,80.13
2018-01-18T11:12:15.316Z,79.94
2018-01-18T11:14:07.973Z,79.94
2018-01-18T11:15:07.898Z,80.08
2018-01-18T11:17:01.895Z,81.13
2018-01-18T11:18:01.994Z,81.32
2018-01-18T11:19:54.829Z,80.37
2018-01-18T11:20:54.737Z,80.27
2018-01-18T11:22:47.792Z,80.18
2018-01-18T11:23:47.682Z,80.75
2018-01-18T11:25:41.595Z,81.51
2018-01-18T11:26:41.455Z,80.75
2018-01-18T11:28:35.494Z,80.27
2018-01-18T11:29:35.370Z,80.37
2018-01-18T11:31:28.474Z,79.90
2018-01-18T11:32:28.349Z,78.66
2018-01-18T11:34:21.319Z,78.38
2018-01-18T11:35:21.203Z,78.13
2018-01-18T11:36:21.121Z,78.03
2018-01-18T11:37:21.093Z,77.37
2018-01-18T11:38:21.625Z,77.28
2018-01-18T11:39:20.940Z,76.61
2018-01-18T11:40:20.891Z,76.32
2018-01-18T11:41:20.847Z,75.95
2018-01-18T11:42:20.763Z,75.76
2018-01-18T11:44:14.327Z,74.81
2018-01-18T11:45:14.705Z,75.47
2018-01-18T11:47:07.563Z,75.76
2018-01-18T11:48:07.482Z,75.95
2018-01-18T11:50:00.536Z,76.42
2018-01-18T11:51:00.456Z,76.42
2018-01-18T11:52:53.451Z,76.80
2018-01-18T11:53:53.392Z,76.52
2018-01-18T11:55:46.368Z,76.32
2018-01-18T11:56:46.306Z,76.14
2018-01-18T11:58:39.405Z,75.85
2018-01-18T11:59:39.294Z,76.23
2018-01-18T12:01:32.324Z,76.99
2018-01-18T12:02:32.221Z,77.09
2018-01-18T12:04:25.264Z,77.56
2018-01-18T12:05:25.169Z,76.80
2018-01-18T12:07:18.194Z,76.90
2018-01-18T12:08:18.112Z,77.28
2018-01-18T12:10:11.111Z,77.37
2018-01-18T12:11:11.034Z,77.33
2018-01-18T12:13:04.079Z,77.81
2018-01-18T12:14:03.965Z,77.43
2018-01-18T12:15:56.969Z,76.90
2018-01-18T12:16:56.910Z,77.52
2018-01-18T12:18:49.955Z,77.71
2018-01-18T12:19:49.857Z,78.75
2018-01-18T12:21:42.899Z,78.28
2018-01-18T12:22:42.937Z,78.80
2018-01-18T12:24:35.975Z,78.56
2018-01-18T12:25:35.805Z,78.75
2018-01-18T12:27:28.787Z,78.75
2018-01-18T12:28:28.717Z,79.99
2018-01-18T12:30:25.139Z,80.18
2018-01-18T12:31:21.818Z,80.18
2018-01-18T12:32:21.633Z,79.90
2018-01-18T12:33:21.592Z,79.80
2018-01-18T12:34:21.556Z,79.23
2018-01-18T12:35:22.228Z,78.99
2018-01-18T12:36:21.614Z,78.61
2018-01-18T12:37:21.477Z,78.70
2018-01-18T12:38:21.280Z,78.99
2018-01-18T12:39:21.245Z,78.61
2018-01-18T12:40:21.172Z,78.85
2018-01-18T12:41:21.110Z,78.66
2018-01-18T12:42:21.049Z,78.56
2018-01-18T12:43:21.057Z,78.75
2018-01-18T12:44:20.918Z,78.75
2018-01-18T12:45:20.944Z,79.42
2018-01-18T12:46:20.804Z,79.23
2018-01-18T12:47:20.770Z,79.84
2018-01-18T12:48:20.721Z,79.55
2018-01-18T12:49:20.716Z,78.89
2018-01-18T12:50:20.580Z,78.89
2018-01-18T12:51:20.482Z,78.70
2018-01-18T12:52:20.436Z,78.70
2018-01-18T12:53:20.396Z,79.36
2018-01-18T12:54:20.317Z,78.70
2018-01-18T12:55:20.317Z,78.80
2018-01-18T12:56:20.210Z,78.80
2018-01-18T12:57:20.159Z,79.55
2018-01-18T12:58:20.090Z,79.23
2018-01-18T12:59:21.007Z,80.13
2018-01-18T13:00:22.474Z,80.41
2018-01-18T13:01:20.604Z,80.22
2018-01-18T13:02:19.847Z,80.27
2018-01-18T13:03:19.799Z,80.08
2018-01-18T13:04:19.709Z,81.04
2018-01-18T13:06:12.758Z,81.41
2018-01-18T13:07:12.657Z,82.36
2018-01-18T13:09:05.719Z,83.50
2018-01-18T13:10:05.645Z,84.45
2018-01-18T13:11:58.679Z,83.97
2018-01-18T13:12:58.569Z,84.83
2018-01-18T13:14:51.677Z,85.02
2018-01-18T13:15:51.570Z,85.49
2018-01-18T13:17:44.626Z,87.01
2018-01-18T13:18:44.487Z,86.63
2018-01-18T13:20:37.645Z,86.07
2018-01-18T13:21:37.474Z,85.97
2018-01-18T13:23:30.475Z,84.83
2018-01-18T13:24:30.456Z,84.92
2018-01-18T13:26:23.459Z,84.07
2018-01-18T13:27:23.397Z,83.78
2018-01-18T13:29:16.380Z,83.12
2018-01-18T13:30:16.314Z,82.46
2018-01-18T13:32:09.448Z,81.32
2018-01-18T13:33:09.333Z,80.94
2018-01-18T13:35:16.892Z,80.84
2018-01-18T13:36:16.757Z,80.94
2018-01-18T13:38:09.807Z,81.88
2018-01-18T13:39:09.707Z,81.79
2018-01-18T13:41:02.872Z,82.46
2018-01-18T13:42:02.719Z,81.79
2018-01-18T13:43:55.774Z,82.65
2018-01-18T13:44:55.685Z,82.84
2018-01-18T13:46:48.705Z,82.27
2018-01-18T13:47:48.628Z,82.55
2018-01-18T13:49:42.831Z,82.74
2018-01-18T13:50:42.739Z,83.31
2018-01-18T13:52:36.099Z,85.59
2018-01-18T13:53:35.652Z,86.16
2018-01-18T13:55:28.688Z,87.63
2018-01-18T13:56:28.596Z,88.58
2018-01-18T13:58:21.608Z,88.87
2018-01-18T13:59:21.534Z,89.34
2018-01-18T14:01:14.559Z,89.25
2018-01-18T14:02:14.449Z,89.34
2018-01-18T14:04:07.494Z,89.43
2018-01-18T14:05:07.390Z,88.68
2018-01-18T14:07:00.378Z,87.73
2018-01-18T14:08:00.300Z,87.63
2018-01-18T14:09:53.328Z,87.68
2018-01-18T14:10:53.228Z,87.01
2018-01-18T14:12:46.251Z,87.11
2018-01-18T14:13:46.207Z,87.11
2018-01-18T14:15:39.228Z,86.07
2018-01-18T14:16:39.080Z,85.78
2018-01-18T14:18:32.108Z,85.59
2018-01-18T14:19:32.036Z,85.59
2018-01-18T14:21:25.123Z,85.68
2018-01-18T14:22:24.974Z,85.40
2018-01-18T14:24:18.123Z,85.30
2018-01-18T14:25:17.930Z,85.11
2018-01-18T14:27:10.992Z,85.30
2018-01-18T14:28:10.893Z,84.26
2018-01-18T14:30:04.029Z,83.88
2018-01-18T14:31:03.853Z,84.17
2018-01-18T14:32:03.755Z,83.97
2018-01-18T14:33:03.689Z,84.64
2018-01-18T14:34:03.602Z,84.55
2018-01-18T14:35:03.545Z,84.55
2018-01-18T14:36:03.512Z,84.36
2018-01-18T14:37:04.594Z,85.21
2018-01-18T14:38:56.610Z,84.74
2018-01-18T14:39:56.509Z,85.49
2018-01-18T14:41:49.908Z,85.21
2018-01-18T14:42:49.428Z,85.68
2018-01-18T14:44:54.107Z,86.07
2018-01-18T14:45:54.013Z,86.35
2018-01-18T14:47:47.026Z,86.54
2018-01-18T14:48:46.956Z,87.25
2018-01-18T14:50:39.966Z,97.64
2018-01-18T14:51:39.861Z,95.98
2018-01-18T14:53:32.877Z,89.62
2018-01-18T14:54:32.809Z,93.99
2018-01-18T14:56:25.829Z,90.66
2018-01-18T14:57:25.832Z,90.47
2018-01-18T14:59:18.739Z,89.43
2018-01-18T15:00:18.662Z,87.91
2018-01-18T15:02:13.954Z,89.05
2018-01-18T15:03:11.606Z,90.38
2018-01-18T15:05:04.866Z,86.68
2018-01-18T15:06:04.578Z,89.62
2018-01-18T15:07:59.438Z,93.80
2018-01-18T15:08:57.549Z,87.05
2018-01-18T15:10:50.718Z,93.51
2018-01-18T15:11:50.413Z,87.53
2018-01-18T15:13:43.575Z,84.55
2018-01-18T15:14:43.462Z,85.21
2018-01-18T15:16:36.690Z,87.11
2018-01-18T15:17:36.442Z,88.34
2018-01-18T15:19:29.359Z,89.53
2018-01-18T15:20:29.284Z,89.15
2018-01-18T15:22:22.340Z,89.72
2018-01-18T15:23:22.235Z,90.48
2018-01-18T15:25:15.435Z,90.67
2018-01-18T15:26:15.203Z,90.86
2018-01-18T15:28:08.229Z,90.86
2018-01-18T15:29:08.161Z,91.24
2018-01-18T15:31:01.301Z,91.14
2018-01-18T15:32:01.204Z,90.95
2018-01-18T15:33:54.253Z,90.76
2018-01-18T15:34:54.179Z,91.33
2018-01-18T15:36:47.234Z,91.05
2018-01-18T15:37:47.192Z,91.42
2018-01-18T15:39:40.159Z,91.61
2018-01-18T15:40:40.088Z,91.24
2018-01-18T15:42:33.140Z,91.80
2018-01-18T15:43:33.039Z,91.33
2018-01-18T15:45:26.079Z,91.52
2018-01-18T15:46:25.983Z,91.24
2018-01-18T15:48:19.007Z,90.19
2018-01-18T15:49:19.007Z,90.57
2018-01-18T15:51:12.040Z,90.38
2018-01-18T15:52:12.009Z,90.10
2018-01-18T15:54:04.956Z,90.00
2018-01-18T15:55:05.024Z,90.00
2018-01-18T15:56:57.904Z,89.62
2018-01-18T15:57:57.806Z,90.00
2018-01-18T15:59:50.834Z,90.38
2018-01-18T16:00:50.759Z,89.62
2018-01-18T16:02:43.882Z,89.72
2018-01-18T16:03:43.701Z,89.43
2018-01-18T16:05:36.720Z,89.25
2018-01-18T16:06:36.757Z,89.06
2018-01-18T16:08:30.476Z,89.15
2018-01-18T16:09:30.395Z,89.62
2018-01-18T16:11:23.419Z,89.34
2018-01-18T16:12:23.318Z,89.43
2018-01-18T16:14:16.335Z,88.77
2018-01-18T16:15:16.252Z,89.15
2018-01-18T16:17:09.249Z,88.48
2018-01-18T16:18:09.158Z,88.39
2018-01-18T16:20:02.146Z,88.10
2018-01-18T16:21:02.195Z,88.29
2018-01-18T16:22:55.113Z,88.48
2018-01-18T16:23:55.017Z,88.68
2018-01-18T16:25:48.076Z,89.06
2018-01-18T16:26:48.004Z,89.25
2018-01-18T16:28:41.018Z,88.96
2018-01-18T16:29:40.927Z,89.15
2018-01-18T16:31:33.909Z,89.15
2018-01-18T16:32:33.836Z,89.43
2018-01-18T16:34:26.904Z,90.00
2018-01-18T16:35:26.817Z,90.00
2018-01-18T16:37:19.878Z,90.19
2018-01-18T16:38:19.771Z,90.38
2018-01-18T16:40:12.788Z,90.29
2018-01-18T16:41:12.723Z,90.67
2018-01-18T16:43:05.747Z,90.57
2018-01-18T16:44:05.653Z,90.62
2018-01-18T16:45:58.679Z,90.29
2018-01-18T16:46:58.607Z,90.57
2018-01-18T16:48:51.626Z,90.91
2018-01-18T16:49:51.529Z,91.00
2018-01-18T16:51:44.541Z,91.28
2018-01-18T16:52:44.462Z,91.85
2018-01-18T16:53:44.389Z,91.76
2018-01-18T16:54:44.342Z,91.85
2018-01-18T16:55:44.265Z,92.90
2018-01-18T16:56:44.279Z,91.85
2018-01-18T16:57:44.149Z,92.71
2018-01-18T16:58:44.085Z,92.52
2018-01-18T16:59:44.024Z,92.90
2018-01-18T17:00:43.965Z,92.71
2018-01-18T17:01:43.900Z,92.42
2018-01-18T17:02:43.844Z,92.42
2018-01-18T17:03:43.786Z,91.95
2018-01-18T17:04:43.720Z,91.85
2018-01-18T17:05:43.656Z,91.85
2018-01-18T17:06:43.659Z,91.85
2018-01-18T17:07:43.535Z,91.47
2018-01-18T17:08:43.475Z,91.19
2018-01-18T17:09:43.417Z,91.28
2018-01-18T17:10:43.360Z,91.47
2018-01-18T17:11:43.312Z,91.09
2018-01-18T17:12:43.231Z,91.28
2018-01-18T17:13:43.174Z,91.95
2018-01-18T17:14:43.111Z,91.57
2018-01-18T17:15:43.061Z,91.95
2018-01-18T17:16:42.994Z,91.95
2018-01-18T17:17:42.989Z,92.14
2018-01-18T17:18:42.986Z,91.00
2018-01-18T17:19:42.888Z,91.00
2018-01-18T17:20:42.841Z,91.38
2018-01-18T17:21:42.794Z,91.28
2018-01-18T17:22:42.683Z,91.19
2018-01-18T17:23:42.567Z,91.47
2018-01-18T17:24:42.507Z,91.19
2018-01-18T17:25:42.444Z,91.38
2018-01-18T17:26:42.423Z,91.38
2018-01-18T17:28:35.423Z,91.09
2018-01-18T17:29:35.331Z,91.38
2018-01-18T17:31:42.631Z,91.00
2018-01-18T17:32:42.624Z,90.05
2018-01-18T17:34:35.611Z,90.15
2018-01-18T17:35:35.623Z,90.43
2018-01-18T17:37:28.584Z,90.34
2018-01-18T17:38:28.424Z,90.15
2018-01-18T17:40:21.461Z,89.96
2018-01-18T17:41:21.380Z,90.15
2018-01-18T17:43:14.450Z,89.96
2018-01-18T17:44:14.355Z,90.05
2018-01-18T17:46:07.450Z,89.96
2018-01-18T17:47:07.409Z,90.15
2018-01-18T17:49:00.428Z,90.43
2018-01-18T17:50:00.268Z,90.43
2018-01-18T17:51:55.144Z,90.53
2018-01-18T17:52:53.317Z,90.62
2018-01-18T17:54:46.455Z,90.62
2018-01-18T17:55:46.188Z,90.91
2018-01-18T17:57:39.240Z,91.09
2018-01-18T17:58:39.127Z,91.38
2018-01-18T18:00:34.019Z,91.28
2018-01-18T18:01:32.091Z,91.28
2018-01-18T18:03:25.313Z,91.47
2018-01-18T18:04:25.103Z,91.85
2018-01-18T18:06:18.268Z,92.61
2018-01-18T18:07:18.188Z,92.04
2018-01-18T18:09:11.517Z,91.85
2018-01-18T18:10:11.071Z,91.95
2018-01-18T18:12:04.059Z,92.23
2018-01-18T18:13:04.004Z,91.47
2018-01-18T18:14:57.055Z,92.80
2018-01-18T18:15:56.993Z,92.47
2018-01-18T18:17:50.027Z,92.85
2018-01-18T18:18:49.933Z,92.28
2018-01-18T18:20:44.820Z,92.76
2018-01-18T18:21:42.857Z,92.76
2018-01-18T18:23:35.920Z,92.19
2018-01-18T18:24:35.820Z,92.47
2018-01-18T18:26:29.475Z,92.66
2018-01-18T18:27:29.010Z,93.23
2018-01-18T18:29:24.287Z,93.32
2018-01-18T18:30:21.997Z,93.61
2018-01-18T18:32:15.750Z,92.38
2018-01-18T18:33:15.798Z,93.13
2018-01-18T18:35:12.085Z,93.13
2018-01-18T18:36:10.626Z,92.38
2018-01-18T18:38:17.037Z,92.47
2018-01-18T18:39:16.165Z,92.80
2018-01-18T18:41:09.174Z,92.71
2018-01-18T18:42:09.111Z,92.61
2018-01-18T18:44:02.163Z,92.14
2018-01-18T18:45:02.058Z,92.80
2018-01-18T18:46:55.928Z,92.04
2018-01-18T18:47:55.855Z,91.76
2018-01-18T18:49:48.886Z,92.23
2018-01-18T18:50:48.790Z,92.33
2018-01-18T18:52:41.802Z,91.19
2018-01-18T18:53:41.737Z,91.28
2018-01-18T18:55:34.806Z,91.19
2018-01-18T18:56:34.706Z,90.91
2018-01-18T18:58:27.705Z,91.00
2018-01-18T18:59:27.633Z,90.91
2018-01-18T19:01:20.694Z,91.38
2018-01-18T19:02:20.589Z,91.19
2018-01-18T19:04:13.611Z,91.28
2018-01-18T19:05:13.543Z,91.19
2018-01-18T19:07:06.596Z,90.53
2018-01-18T19:08:06.498Z,90.91
2018-01-18T19:09:59.515Z,91.47
2018-01-18T19:10:59.456Z,91.47
2018-01-18T19:12:52.622Z,91.28
2018-01-18T19:13:52.414Z,91.28
2018-01-18T19:15:45.437Z,91.28
2018-01-18T19:16:45.480Z,91.24
2018-01-18T19:18:38.398Z,91.24
2018-01-18T19:19:38.296Z,91.14
2018-01-18T19:21:31.298Z,91.81
2018-01-18T19:22:31.238Z,91.43
2018-01-18T19:24:24.246Z,91.52
2018-01-18T19:25:24.150Z,91.90
2018-01-18T19:27:17.136Z,91.71
2018-01-18T19:28:17.066Z,91.71
2018-01-18T19:30:10.134Z,92.19
2018-01-18T19:31:10.041Z,91.81
2018-01-18T19:33:03.041Z,92.19
2018-01-18T19:34:02.972Z,92.19
2018-01-18T19:35:55.981Z,92.47
2018-01-18T19:36:55.886Z,92.76
2018-01-18T19:38:48.916Z,92.66
2018-01-18T19:39:48.820Z,92.38
2018-01-18T19:41:41.822Z,92.66
2018-01-18T19:42:42.619Z,92.57
2018-01-18T19:44:35.196Z,92.47
2018-01-18T19:45:34.666Z,92.47
2018-01-18T19:46:34.603Z,92.47
2018-01-18T19:47:34.544Z,92.28
2018-01-18T19:48:34.495Z,92.94
2018-01-18T19:49:34.416Z,93.23
2018-01-18T19:50:34.358Z,92.85
2018-01-18T19:51:34.296Z,92.57
2018-01-18T19:52:34.234Z,92.85
2018-01-18T19:53:34.177Z,93.23
2018-01-18T19:54:34.113Z,93.51
2018-01-18T19:55:34.048Z,93.42
2018-01-18T19:56:34.032Z,93.51
2018-01-18T19:57:33.933Z,93.42
2018-01-18T19:58:33.867Z,93.51
2018-01-18T19:59:33.811Z,93.32
2018-01-18T20:00:33.746Z,93.42
2018-01-18T20:01:33.682Z,93.32
2018-01-18T20:02:33.633Z,92.71
2018-01-18T20:03:33.565Z,92.94
2018-01-18T20:04:33.500Z,93.18
2018-01-18T20:05:33.440Z,93.23
2018-01-18T20:06:33.377Z,92.99
2018-01-18T20:07:33.316Z,93.04
2018-01-18T20:08:33.251Z,92.85
2018-01-18T20:09:33.190Z,93.37
2018-01-18T20:10:33.140Z,93.08
2018-01-18T20:11:33.070Z,93.37
2018-01-18T20:12:33.005Z,93.37
2018-01-18T20:13:32.946Z,93.75
2018-01-18T20:14:32.887Z,93.27
2018-01-18T20:15:32.830Z,93.84
2018-01-18T20:16:32.758Z,93.75
2018-01-18T20:17:32.706Z,93.56
2018-01-18T20:18:32.637Z,93.56
2018-01-18T20:19:32.581Z,93.94
2018-01-18T20:20:32.515Z,93.94
2018-01-18T20:21:32.451Z,94.13
2018-01-18T20:22:32.399Z,93.56
2018-01-18T20:23:32.335Z,93.46
2018-01-18T20:24:32.268Z,93.27
2018-01-18T20:25:32.211Z,93.27
2018-01-18T20:26:32.151Z,94.13
2018-01-18T20:27:32.086Z,94.13
2018-01-18T20:28:32.028Z,92.61
2018-01-18T20:29:31.962Z,93.84
2018-01-18T20:30:31.909Z,93.75
2018-01-18T20:31:31.895Z,93.65
2018-01-18T20:32:31.777Z,93.27
2018-01-18T20:33:31.716Z,93.46
2018-01-18T20:34:31.654Z,93.65
2018-01-18T20:35:31.591Z,93.56
2018-01-18T20:36:31.532Z,93.65
2018-01-18T20:37:31.473Z,93.56
2018-01-18T20:38:31.406Z,93.46
2018-01-18T20:39:31.349Z,93.46
2018-01-18T20:40:31.288Z,93.75
2018-01-18T20:41:31.220Z,93.37
2018-01-18T20:42:31.170Z,94.04
2018-01-18T20:43:31.107Z,93.94
2018-01-18T20:44:31.041Z,93.94
2018-01-18T20:45:30.977Z,93.75
2018-01-18T20:46:30.919Z,93.56
2018-01-18T20:47:30.857Z,93.56
2018-01-18T20:48:30.794Z,93.37
2018-01-18T20:49:30.803Z,93.27
2018-01-18T20:50:30.680Z,93.18
2018-01-18T20:51:30.609Z,92.99
2018-01-18T20:52:30.568Z,94.32
2018-01-18T20:53:30.499Z,94.13
2018-01-18T20:54:30.423Z,93.08
2018-01-18T20:55:30.365Z,93.18
2018-01-18T20:56:30.301Z,93.46
2018-01-18T20:57:30.244Z,93.37
2018-01-18T20:58:30.176Z,94.13
2018-01-18T20:59:30.115Z,93.27
2018-01-18T21:00:30.055Z,93.56
2018-01-18T21:01:30.006Z,93.56
2018-01-18T21:02:29.931Z,93.65
2018-01-18T21:03:29.870Z,93.46
2018-01-18T21:04:29.808Z,93.65
2018-01-18T21:05:29.748Z,93.75
2018-01-18T21:06:29.684Z,93.65
2018-01-18T21:07:29.624Z,93.27
2018-01-18T21:08:29.565Z,94.23
2018-01-18T21:09:29.507Z,93.37
2018-01-18T21:10:29.468Z,93.56
2018-01-18T21:11:29.377Z,94.23
2018-01-18T21:12:29.313Z,94.23
2018-01-18T21:13:29.258Z,93.94
2018-01-18T21:14:29.197Z,94.13
2018-01-18T21:15:29.131Z,93.46
2018-01-18T21:16:29.068Z,93.75
2018-01-18T21:17:29.058Z,93.65
2018-01-18T21:18:28.947Z,93.94
2018-01-18T21:19:28.888Z,93.94
2018-01-18T21:20:28.833Z,93.37
2018-01-18T21:21:28.761Z,94.23
2018-01-18T21:22:28.702Z,93.56
2018-01-18T21:23:28.769Z,93.46
2018-01-18T21:24:28.579Z,93.27
2018-01-18T21:25:28.530Z,93.84
2018-01-18T21:26:28.452Z,93.37
2018-01-18T21:27:28.394Z,94.23
2018-01-18T21:28:28.328Z,93.56
2018-01-18T21:29:28.269Z,93.46
2018-01-18T21:30:28.208Z,94.23
2018-01-18T21:31:28.147Z,94.04
2018-01-18T21:32:28.081Z,93.08
2018-01-18T21:33:28.024Z,93.65
2018-01-18T21:34:27.979Z,93.46
2018-01-18T21:35:27.901Z,93.65
2018-01-18T21:36:27.839Z,93.75
2018-01-18T21:37:27.806Z,93.94
2018-01-18T21:38:27.756Z,93.94
2018-01-18T21:39:27.655Z,93.84
2018-01-18T21:40:27.592Z,93.27
2018-01-18T21:41:27.528Z,93.46
2018-01-18T21:42:27.471Z,93.46
2018-01-18T21:43:27.406Z,93.84
2018-01-18T21:44:27.344Z,93.94
2018-01-18T21:45:27.281Z,94.04
2018-01-18T21:46:27.224Z,94.04
2018-01-18T21:47:27.159Z,93.37
2018-01-18T21:48:27.095Z,93.75
2018-01-18T21:49:27.050Z,93.56
2018-01-18T21:50:26.971Z,93.46
2018-01-18T21:51:26.915Z,93.37
2018-01-18T21:52:26.854Z,93.75
2018-01-18T21:53:26.797Z,93.65
2018-01-18T21:54:26.733Z,93.94
2018-01-18T21:55:26.663Z,93.94
2018-01-18T21:56:26.607Z,94.13
2018-01-18T21:57:26.543Z,93.84
2018-01-18T21:58:26.500Z,93.99
2018-01-18T21:59:26.420Z,94.18
2018-01-18T22:00:26.356Z,94.37
2018-01-18T22:01:26.292Z,94.13
2018-01-18T22:02:26.233Z,94.79
2018-01-18T22:03:26.173Z,94.13
2018-01-18T22:04:26.120Z,94.37
2018-01-18T22:05:26.053Z,94.65
2018-01-18T22:06:25.988Z,94.98
2018-01-18T22:07:25.930Z,95.03
2018-01-18T22:08:25.862Z,94.65
2018-01-18T22:09:25.799Z,94.74
2018-01-18T22:10:25.739Z,94.93
2018-01-18T22:11:25.680Z,94.98
2018-01-18T22:12:25.622Z,95.03
2018-01-18T22:13:25.569Z,94.70
2018-01-18T22:14:25.596Z,95.03
2018-01-18T22:15:25.432Z,95.03
2018-01-18T22:16:25.413Z,96.69
2018-01-18T22:17:26.460Z,99.99
2018-01-18T22:18:25.249Z,99.99
2018-01-18T22:19:25.260Z,99.99
2018-01-18T22:20:25.122Z,99.99
2018-01-18T22:21:25.068Z,99.99
2018-01-18T22:22:25.046Z,99.99
2018-01-18T22:23:24.945Z,99.99
2018-01-18T22:24:24.881Z,93.32
2018-01-18T22:25:24.810Z,81.59
2018-01-18T22:26:24.753Z,79.94
2018-01-18T22:27:24.897Z,80.65
2018-01-18T22:28:24.635Z,82.32
2018-01-18T22:29:24.587Z,84.65
2018-01-18T22:30:24.557Z,86.64
2018-01-18T22:32:17.561Z,89.15
2018-01-18T22:33:17.459Z,90.20
2018-01-18T22:35:10.481Z,91.86
2018-01-18T22:36:10.408Z,92.33
2018-01-18T22:38:03.466Z,93.27
2018-01-18T22:39:03.364Z,93.27
2018-01-18T22:40:56.420Z,94.13
2018-01-18T22:41:56.326Z,94.04
2018-01-18T22:43:49.351Z,94.60
2018-01-18T22:44:49.279Z,94.60
2018-01-18T22:46:42.421Z,94.51
2018-01-18T22:47:42.936Z,94.98
2018-01-18T22:49:35.369Z,94.70
2018-01-18T22:50:35.376Z,95.12
2018-01-18T22:52:28.240Z,95.21
2018-01-18T22:53:28.140Z,95.59
2018-01-18T22:55:21.180Z,95.69
2018-01-18T22:56:21.097Z,95.50
2018-01-18T22:58:14.250Z,95.83
2018-01-18T22:59:14.048Z,95.78
2018-01-18T23:01:07.142Z,95.69
2018-01-18T23:02:07.017Z,95.31
2018-01-18T23:04:00.043Z,95.78
2018-01-18T23:04:59.969Z,95.59
2018-01-18T23:06:53.033Z,95.31
2018-01-18T23:07:53.018Z,95.78
2018-01-18T23:09:45.952Z,95.69
2018-01-18T23:10:45.862Z,95.59
2018-01-18T23:12:38.920Z,95.88
2018-01-18T23:13:38.833Z,95.88
2018-01-18T23:15:31.841Z,95.78
2018-01-18T23:16:31.780Z,95.31
2018-01-18T23:18:24.831Z,95.93
2018-01-18T23:19:24.744Z,95.93
2018-01-18T23:21:17.760Z,95.64
2018-01-18T23:22:18.621Z,95.64
2018-01-18T23:24:10.635Z,95.64
2018-01-18T23:25:10.560Z,95.74
2018-01-18T23:27:03.607Z,96.02
2018-01-18T23:28:04.431Z,96.02
2018-01-18T23:29:57.376Z,95.74
2018-01-18T23:30:56.442Z,95.74
2018-01-18T23:32:49.496Z,95.74
2018-01-18T23:33:49.394Z,95.36
2018-01-18T23:35:42.428Z,96.21
2018-01-18T23:36:42.362Z,95.83
2018-01-18T23:38:35.408Z,95.93
2018-01-18T23:39:35.297Z,95.93
2018-01-18T23:41:28.361Z,95.55
2018-01-18T23:42:28.255Z,95.78
2018-01-18T23:44:21.402Z,96.21
2018-01-18T23:45:21.325Z,96.02
2018-01-18T23:47:14.260Z,95.78
2018-01-18T23:48:14.179Z,97.02
2018-01-18T23:50:07.194Z,96.35
2018-01-18T23:51:07.156Z,96.64
2018-01-18T23:53:00.194Z,96.54
2018-01-18T23:54:00.075Z,96.64
2018-01-18T23:55:53.128Z,96.45
2018-01-18T23:56:55.065Z,96.64
2018-01-18T23:58:46.091Z,96.73
2018-01-18T23:59:45.984Z,97.02
